createdAt,value
2022-08-04T00:00:11.933Z,84.60
2022-08-04T00:03:43.061Z,84.67
2022-08-04T00:06:57.817Z,84.31
2022-08-04T00:10:01.692Z,84.07
2022-08-04T00:13:05.685Z,84.17
2022-08-04T00:16:09.779Z,84.04
2022-08-04T00:19:31.684Z,84.30
2022-08-04T00:22:35.550Z,84.56
2022-08-04T00:25:44.670Z,84.88
2022-08-04T00:28:47.840Z,85.38
2022-08-04T00:31:56.343Z,86.05
2022-08-04T00:35:00.317Z,86.46
2022-08-04T00:38:03.264Z,86.78
2022-08-04T00:41:20.821Z,86.95
2022-08-04T00:44:33.500Z,86.96
2022-08-04T00:47:54.159Z,87.03
2022-08-04T00:50:56.028Z,86.91
2022-08-04T00:54:19.573Z,86.84
2022-08-04T00:57:33.790Z,86.99
2022-08-04T01:01:04.613Z,87.35
2022-08-04T01:04:22.436Z,87.34
2022-08-04T01:07:41.445Z,87.07
2022-08-04T01:10:49.236Z,86.99
2022-08-04T01:14:00.802Z,86.61
2022-08-04T01:17:26.528Z,86.52
2022-08-04T01:20:35.300Z,86.77
2022-08-04T01:24:17.782Z,86.84
2022-08-04T01:27:34.092Z,87.17
2022-08-04T01:30:43.176Z,87.29
2022-08-04T01:34:03.284Z,86.95
2022-08-04T01:37:32.831Z,86.70
2022-08-04T01:40:38.301Z,86.96
2022-08-04T01:43:45.044Z,87.20
2022-08-04T01:46:50.501Z,87.59
2022-08-04T01:49:55.012Z,87.39
2022-08-04T01:52:57.036Z,87.66
2022-08-04T01:55:58.849Z,87.82
2022-08-04T01:59:03.407Z,88.54
2022-08-04T02:02:06.393Z,88.79
2022-08-04T02:05:12.500Z,88.66
2022-08-04T02:08:40.170Z,88.54
2022-08-04T02:11:49.105Z,88.28
2022-08-04T02:14:50.713Z,88.29
2022-08-04T02:18:09.974Z,88.08
2022-08-04T02:21:12.570Z,88.27
2022-08-04T02:24:16.662Z,88.62
2022-08-04T02:27:25.551Z,88.71
2022-08-04T02:30:33.339Z,89.07
2022-08-04T02:33:43.006Z,88.92
2022-08-04T02:36:46.242Z,89.17
2022-08-04T02:39:52.075Z,89.46
2022-08-04T02:42:53.959Z,89.68
2022-08-04T02:45:57.486Z,89.39
2022-08-04T02:49:03.582Z,89.38
2022-08-04T02:52:07.644Z,89.35
2022-08-04T02:55:11.030Z,89.44
2022-08-04T02:58:12.891Z,89.72
2022-08-04T03:01:14.685Z,89.67
2022-08-04T03:04:40.890Z,89.79
2022-08-04T03:08:16.561Z,89.58
2022-08-04T03:11:37.396Z,89.52
2022-08-04T03:15:10.388Z,89.76
2022-08-04T03:18:33.963Z,90.05
2022-08-04T03:22:07.169Z,89.95
2022-08-04T03:25:55.844Z,89.74
2022-08-04T03:29:37.056Z,90.09
2022-08-04T03:33:17.574Z,89.88
2022-08-04T03:36:37.241Z,89.30
2022-08-04T03:40:03.803Z,89.32
2022-08-04T03:43:57.153Z,89.65
2022-08-04T03:46:59.689Z,89.76
2022-08-04T03:50:07.137Z,90.05
2022-08-04T03:53:20.966Z,90.18
2022-08-04T03:56:34.804Z,90.33
2022-08-04T03:59:49.121Z,90.55
2022-08-04T04:03:00.271Z,90.68
2022-08-04T04:06:30.405Z,90.62
2022-08-04T04:10:10.762Z,90.81
2022-08-04T04:13:45.518Z,90.82
2022-08-04T04:17:15.675Z,91.19
2022-08-04T04:20:29.738Z,91.52
2022-08-04T04:23:46.964Z,91.92
2022-08-04T04:27:02.317Z,92.45
2022-08-04T04:30:19.542Z,91.96
2022-08-04T04:33:37.857Z,92.21
2022-08-04T04:37:04.482Z,92.07
2022-08-04T04:40:34.570Z,91.73
2022-08-04T04:43:58.227Z,91.69
2022-08-04T04:47:43.023Z,91.36
2022-08-04T04:51:15.259Z,91.09
2022-08-04T04:54:35.355Z,91.16
2022-08-04T04:57:54.523Z,90.91
2022-08-04T05:01:13.816Z,90.85
2022-08-04T05:04:30.859Z,90.43
2022-08-04T05:07:58.658Z,90.20
2022-08-04T05:11:07.528Z,90.22
2022-08-04T05:14:36.039Z,89.82
2022-08-04T05:17:42.598Z,89.88
2022-08-04T05:20:46.822Z,89.50
2022-08-04T05:23:50.525Z,88.63
2022-08-04T05:26:55.659Z,87.99
2022-08-04T05:30:04.443Z,87.63
2022-08-04T05:33:11.168Z,88.57
2022-08-04T05:36:29.389Z,88.93
2022-08-04T05:39:47.197Z,89.18
2022-08-04T05:42:49.864Z,88.68
2022-08-04T05:45:52.609Z,88.36
2022-08-04T05:48:54.600Z,86.99
2022-08-04T05:52:00.260Z,85.89
2022-08-04T05:55:03.207Z,85.97
2022-08-04T05:58:05.181Z,84.38
2022-08-04T06:01:08.981Z,83.88
2022-08-04T06:04:11.695Z,84.18
2022-08-04T06:07:14.394Z,83.59
2022-08-04T06:10:17.154Z,83.27
2022-08-04T06:13:48.822Z,82.63
2022-08-04T06:16:49.426Z,82.47
2022-08-04T06:20:03.739Z,82.99
2022-08-04T06:23:17.427Z,82.90
2022-08-04T06:26:20.155Z,81.54
2022-08-04T06:29:37.335Z,81.13
2022-08-04T06:32:48.107Z,81.70
2022-08-04T06:35:51.755Z,81.64
2022-08-04T06:38:58.798Z,82.69
2022-08-04T06:42:17.548Z,82.24
2022-08-04T06:45:24.247Z,81.22
2022-08-04T06:48:33.349Z,80.76
2022-08-04T06:51:46.630Z,80.52
2022-08-04T06:54:52.283Z,79.89
2022-08-04T06:57:58.389Z,79.10
2022-08-04T07:01:03.238Z,78.74
2022-08-04T07:04:06.039Z,78.49
2022-08-04T07:07:07.807Z,78.36
2022-08-04T07:10:10.656Z,77.37
2022-08-04T07:13:12.957Z,76.77
2022-08-04T07:16:15.831Z,77.25
2022-08-04T07:19:19.183Z,77.45
2022-08-04T07:22:25.599Z,77.51
2022-08-04T07:25:59.021Z,77.87
2022-08-04T07:28:49.625Z,75.11
2022-08-04T07:31:52.072Z,73.16
2022-08-04T07:34:54.174Z,73.66
2022-08-04T07:37:58.186Z,74.65
2022-08-04T07:41:01.447Z,74.73
2022-08-04T07:44:03.978Z,73.02
2022-08-04T07:47:07.579Z,72.77
2022-08-04T07:50:11.013Z,72.85
2022-08-04T07:53:55.343Z,71.76
2022-08-04T07:56:36.590Z,72.06
2022-08-04T07:59:38.559Z,72.14
2022-08-04T08:02:42.084Z,72.19
2022-08-04T08:06:17.630Z,70.21
2022-08-04T08:09:12.203Z,69.09
2022-08-04T08:12:35.112Z,67.37
2022-08-04T08:15:38.862Z,68.37
2022-08-04T08:18:40.776Z,66.98
2022-08-04T08:21:59.241Z,65.29
2022-08-04T08:25:02.258Z,65.93
2022-08-04T08:28:05.479Z,67.04
2022-08-04T08:31:07.424Z,67.03
2022-08-04T08:34:11.750Z,65.10
2022-08-04T08:37:42.155Z,62.97
2022-08-04T08:40:48.843Z,63.11
2022-08-04T08:44:30.097Z,62.92
2022-08-04T08:48:06.217Z,61.35
2022-08-04T08:51:47.445Z,62.26
2022-08-04T08:55:13.898Z,61.16
2022-08-04T08:58:45.226Z,59.01
2022-08-04T09:02:02.561Z,58.49
2022-08-04T09:05:30.387Z,58.06
2022-08-04T09:08:45.132Z,58.19
2022-08-04T09:12:19.216Z,57.92
2022-08-04T09:15:38.231Z,56.69
2022-08-04T09:18:54.450Z,57.90
2022-08-04T09:22:01.491Z,58.09
2022-08-04T09:25:25.891Z,56.90
2022-08-04T09:28:52.834Z,55.98
2022-08-04T09:32:07.798Z,55.29
2022-08-04T09:35:40.813Z,53.29
2022-08-04T09:38:52.370Z,55.06
2022-08-04T09:42:16.727Z,55.10
2022-08-04T09:45:42.499Z,55.25
2022-08-04T09:48:58.919Z,54.29
2022-08-04T09:52:21.562Z,54.04
2022-08-04T09:56:03.844Z,54.04
2022-08-04T09:59:25.548Z,52.76
2022-08-04T10:02:34.720Z,51.48
2022-08-04T10:05:51.510Z,50.94
2022-08-04T10:09:14.493Z,51.52
2022-08-04T10:12:39.565Z,51.08
2022-08-04T10:15:53.375Z,49.88
2022-08-04T10:19:25.037Z,49.39
2022-08-04T10:22:44.675Z,49.73
2022-08-04T10:26:26.305Z,49.67
2022-08-04T10:29:32.413Z,49.27
2022-08-04T10:33:04.971Z,49.05
2022-08-04T10:36:10.653Z,49.15
2022-08-04T10:39:42.670Z,48.60
2022-08-04T10:42:50.451Z,48.49
2022-08-04T10:45:57.955Z,48.58
2022-08-04T10:49:04.471Z,48.97
2022-08-04T10:52:25.354Z,47.96
2022-08-04T10:56:09.775Z,47.64
2022-08-04T10:59:17.075Z,47.38
2022-08-04T11:02:34.699Z,46.99
2022-08-04T11:05:45.866Z,47.65
2022-08-04T11:08:53.544Z,47.64
2022-08-04T11:12:02.365Z,46.75
2022-08-04T11:15:21.481Z,46.29
2022-08-04T11:18:36.562Z,47.04
2022-08-04T11:21:45.335Z,47.83
2022-08-04T11:25:21.014Z,48.04
2022-08-04T11:29:03.743Z,46.37
2022-08-04T11:32:11.079Z,45.41
2022-08-04T11:35:18.890Z,45.34
2022-08-04T11:38:32.190Z,45.73
2022-08-04T11:41:42.556Z,45.79
2022-08-04T11:44:51.965Z,45.92
2022-08-04T11:48:41.096Z,45.89
2022-08-04T11:51:43.494Z,43.96
2022-08-04T11:54:45.948Z,43.47
2022-08-04T11:57:55.319Z,43.92
2022-08-04T12:01:09.929Z,42.27
2022-08-04T12:04:20.783Z,42.37
2022-08-04T12:07:40.671Z,42.59
2022-08-04T12:11:05.920Z,43.02
2022-08-04T12:14:39.553Z,43.39
2022-08-04T12:18:18.885Z,43.67
2022-08-04T12:21:43.595Z,43.02
2022-08-04T12:24:59.994Z,43.13
2022-08-04T12:28:06.558Z,41.60
2022-08-04T12:31:16.894Z,41.90
2022-08-04T12:34:31.097Z,41.65
2022-08-04T12:37:52.285Z,42.35
2022-08-04T12:40:55.904Z,42.33
2022-08-04T12:44:05.473Z,42.03
2022-08-04T12:47:26.773Z,42.60
2022-08-04T12:50:32.093Z,41.75
2022-08-04T12:53:50.888Z,40.53
2022-08-04T12:56:57.592Z,40.73
2022-08-04T12:59:59.294Z,40.20
2022-08-04T13:03:09.991Z,41.32
2022-08-04T13:06:19.675Z,41.04
2022-08-04T13:09:29.098Z,40.65
2022-08-04T13:12:32.234Z,40.03
2022-08-04T13:15:47.548Z,39.59
2022-08-04T13:18:57.819Z,39.84
2022-08-04T13:22:07.254Z,39.60
2022-08-04T13:26:41.344Z,39.62
2022-08-04T13:28:34.608Z,39.30
2022-08-04T13:31:36.692Z,39.09
2022-08-04T13:34:41.670Z,38.66
2022-08-04T13:37:51.974Z,38.48
2022-08-04T13:40:57.408Z,38.31
2022-08-04T13:44:17.868Z,38.73
2022-08-04T13:47:28.331Z,38.64
2022-08-04T13:50:32.401Z,38.63
2022-08-04T13:53:35.854Z,38.19
2022-08-04T13:56:40.501Z,37.57
2022-08-04T13:59:44.812Z,36.92
2022-08-04T14:02:59.100Z,37.12
2022-08-04T14:06:07.616Z,37.01
2022-08-04T14:09:20.920Z,37.15
2022-08-04T14:12:38.628Z,36.34
2022-08-04T14:16:01.455Z,35.89
2022-08-04T14:19:05.900Z,35.72
2022-08-04T14:22:10.008Z,35.48
2022-08-04T14:25:18.499Z,35.17
2022-08-04T14:29:01.192Z,35.11
2022-08-04T14:32:00.955Z,35.14
2022-08-04T14:35:11.062Z,35.32
2022-08-04T14:38:12.839Z,34.24
2022-08-04T14:41:16.167Z,34.16
2022-08-04T14:44:17.841Z,34.79
2022-08-04T14:47:19.889Z,34.94
2022-08-04T14:50:42.729Z,34.89
2022-08-04T14:53:47.561Z,34.11
2022-08-04T14:56:54.976Z,34.23
2022-08-04T14:59:59.509Z,34.66
2022-08-04T15:03:09.250Z,35.18
2022-08-04T15:06:16.123Z,34.96
2022-08-04T15:09:20.958Z,34.83
2022-08-04T15:12:23.321Z,35.05
2022-08-04T15:15:36.342Z,36.25
2022-08-04T15:18:39.479Z,36.91
2022-08-04T15:21:41.742Z,37.15
2022-08-04T15:24:43.479Z,37.53
2022-08-04T15:27:47.889Z,37.32
2022-08-04T15:30:53.424Z,37.51
2022-08-04T15:33:56.250Z,37.82
2022-08-04T15:36:59.382Z,37.75
2022-08-04T15:40:13.960Z,38.03
2022-08-04T15:43:21.431Z,37.96
2022-08-04T15:46:45.684Z,38.24
2022-08-04T15:50:03.557Z,38.23
2022-08-04T15:53:12.561Z,39.02
2022-08-04T15:56:30.486Z,38.72
2022-08-04T16:00:01.406Z,39.48
2022-08-04T16:03:03.363Z,39.68
2022-08-04T16:06:41.187Z,39.56
2022-08-04T16:09:45.926Z,40.29
2022-08-04T16:12:57.009Z,40.31
2022-08-04T16:16:03.562Z,40.14
2022-08-04T16:19:13.395Z,40.02
2022-08-04T16:22:36.225Z,40.59
2022-08-04T16:25:46.669Z,40.93
2022-08-04T16:28:48.454Z,40.73
2022-08-04T16:32:05.897Z,40.59
2022-08-04T16:35:26.296Z,41.18
2022-08-04T16:38:28.679Z,41.26
2022-08-04T16:41:41.346Z,41.61
2022-08-04T16:44:53.010Z,41.60
2022-08-04T16:47:55.451Z,41.36
2022-08-04T16:51:07.137Z,42.29
2022-08-04T16:54:09.344Z,42.26
2022-08-04T16:57:11.218Z,42.41
2022-08-04T17:00:13.091Z,42.50
2022-08-04T17:03:15.005Z,42.93
2022-08-04T17:06:17.794Z,43.00
2022-08-04T17:09:20.885Z,42.96
2022-08-04T17:12:28.915Z,42.91
2022-08-04T17:15:30.750Z,43.28
2022-08-04T17:18:41.390Z,43.31
2022-08-04T17:21:44.384Z,42.61
2022-08-04T17:24:46.139Z,42.09
2022-08-04T17:28:08.682Z,41.86
2022-08-04T17:31:11.106Z,41.95
2022-08-04T17:37:40.658Z,42.59
2022-08-04T17:41:18.999Z,43.19
2022-08-04T17:44:37.290Z,43.75
2022-08-04T17:47:52.542Z,44.33
2022-08-04T17:50:54.341Z,44.77
2022-08-04T17:54:02.335Z,45.21
2022-08-04T17:57:22.325Z,45.75
2022-08-04T18:00:24.285Z,46.20
2022-08-04T18:03:35.181Z,46.48
2022-08-04T18:06:37.998Z,46.98
2022-08-04T18:10:30.255Z,47.16
2022-08-04T18:13:20.419Z,47.81
2022-08-04T18:16:23.367Z,48.35
2022-08-04T18:19:25.344Z,48.73
2022-08-04T18:22:28.809Z,49.09
2022-08-04T18:25:51.389Z,49.58
2022-08-04T18:28:52.570Z,50.13
2022-08-04T18:31:54.333Z,50.46
2022-08-04T18:34:57.490Z,50.74
2022-08-04T18:38:22.675Z,51.19
2022-08-04T18:41:29.236Z,51.53
2022-08-04T18:44:52.889Z,51.79
2022-08-04T18:47:58.891Z,52.06
2022-08-04T18:51:22.388Z,52.48
2022-08-04T18:54:25.223Z,52.94
2022-08-04T18:57:58.420Z,53.38
2022-08-04T19:00:51.194Z,54.10
2022-08-04T19:03:57.691Z,54.46
2022-08-04T19:07:01.068Z,54.68
2022-08-04T19:10:23.691Z,54.96
2022-08-04T19:13:34.655Z,55.68
2022-08-04T19:16:37.267Z,56.03
2022-08-04T19:19:47.531Z,56.26
2022-08-04T19:24:28.012Z,56.64
2022-08-04T19:26:23.690Z,57.29
2022-08-04T19:29:37.793Z,57.67
2022-08-04T19:32:42.296Z,57.94
2022-08-04T19:35:50.781Z,58.10
2022-08-04T19:38:52.785Z,58.56
2022-08-04T19:42:04.538Z,59.07
2022-08-04T19:45:08.252Z,59.45
2022-08-04T19:48:18.064Z,59.70
2022-08-04T19:51:21.627Z,59.88
2022-08-04T19:54:27.328Z,60.30
2022-08-04T19:57:35.548Z,60.53
2022-08-04T20:00:39.131Z,60.79
2022-08-04T20:04:09.434Z,61.08
2022-08-04T20:07:02.643Z,61.46
2022-08-04T20:10:05.794Z,61.63
2022-08-04T20:13:10.528Z,62.06
2022-08-04T20:16:28.417Z,62.23
2022-08-04T20:19:32.409Z,62.52
2022-08-04T20:22:51.827Z,62.85
2022-08-04T20:25:54.893Z,63.20
2022-08-04T20:28:57.937Z,63.40
2022-08-04T20:32:05.534Z,63.72
2022-08-04T20:35:14.144Z,64.05
2022-08-04T20:38:33.370Z,64.36
2022-08-04T20:41:36.700Z,64.55
2022-08-04T20:44:46.388Z,64.84
2022-08-04T20:47:53.046Z,65.09
2022-08-04T20:50:55.523Z,65.32
2022-08-04T20:53:59.349Z,65.51
2022-08-04T20:57:01.597Z,65.74
2022-08-04T21:00:05.972Z,65.92
2022-08-04T21:03:07.743Z,66.25
2022-08-04T21:06:09.508Z,66.42
2022-08-04T21:09:15.535Z,66.47
2022-08-04T21:12:29.230Z,66.80
2022-08-04T21:15:58.004Z,67.18
2022-08-04T21:18:53.358Z,67.48
2022-08-04T21:21:55.089Z,67.80
2022-08-04T21:24:57.132Z,68.08
2022-08-04T21:28:04.283Z,68.20
2022-08-04T21:31:11.066Z,68.62
2022-08-04T21:34:38.052Z,68.75
2022-08-04T21:37:57.186Z,68.91
2022-08-04T21:41:02.747Z,69.49
2022-08-04T21:44:05.607Z,69.86
2022-08-04T21:47:14.022Z,70.03
2022-08-04T21:50:25.386Z,70.17
2022-08-04T21:53:32.587Z,70.44
2022-08-04T21:56:34.843Z,70.81
2022-08-04T21:59:45.978Z,71.05
2022-08-04T22:02:53.010Z,71.47
2022-08-04T22:05:55.506Z,71.78
2022-08-04T22:08:57.844Z,71.91
2022-08-04T22:11:59.965Z,72.13
2022-08-04T22:15:23.011Z,72.15
2022-08-04T22:18:29.509Z,72.51
2022-08-04T22:21:31.848Z,72.62
2022-08-04T22:24:41.115Z,72.52
2022-08-04T22:28:02.931Z,72.73
2022-08-04T22:31:23.121Z,72.98
2022-08-04T22:34:27.875Z,73.19
2022-08-04T22:37:36.213Z,73.42
2022-08-04T22:40:47.547Z,73.56
2022-08-04T22:43:55.002Z,73.74
2022-08-04T22:46:57.007Z,74.08
2022-08-04T22:50:22.095Z,74.45
2022-08-04T22:53:22.688Z,74.36
2022-08-04T22:56:38.679Z,74.51
2022-08-04T22:59:43.179Z,74.56
2022-08-04T23:02:45.195Z,74.61
2022-08-04T23:05:50.461Z,74.95
2022-08-04T23:08:52.761Z,74.92
2022-08-04T23:12:15.173Z,75.06
2022-08-04T23:15:16.757Z,75.38
2022-08-04T23:18:20.112Z,75.71
2022-08-04T23:21:24.404Z,75.90
2022-08-04T23:24:29.768Z,76.24
2022-08-04T23:27:39.035Z,76.60
2022-08-04T23:30:46.937Z,76.78
2022-08-04T23:33:49.328Z,76.97
2022-08-04T23:36:52.689Z,77.22
2022-08-04T23:40:15.489Z,77.35
2022-08-04T23:43:19.386Z,77.41
2022-08-04T23:46:21.900Z,77.44
2022-08-04T23:49:23.925Z,77.51
2022-08-04T23:52:43.398Z,77.71
2022-08-04T23:55:45.492Z,77.75
2022-08-04T23:58:47.294Z,78.00
